Sunflower Hakata — JL6711 — position and weather

sailwx.info

Track history (hours):
 
Tides and Currents Weather Stations Pressure Air Temp Water Temp Dewpoint Dewpoint Depression Visibility Wind Speed Wind Dir Waves Ship Positions

Sunflower Hakata

Last reported at 2016-Sep-27 14:33 UTC. Time now 2016-Sep-29 13:38 UTC.
Position N 35°00' E 139°33'.

Length 167 m; draft 6.5 m.

Type: Cargo ship. MMSI: 431501764.

Date/timePositionNaut miles runAvg speedWind from/ knotsBaromVisibWave heightAir tempDewpointWater temp
2016-Sep-27 14:33N 35°00' E 139°33'1817.9
2016-Sep-27 13:33N 35°14' E 139°46'23 7.5
2016-Sep-27 10:33N 35°37' E 139°48'0 0.0
2016-Sep-27 00:33N 35°37' E 139°48'0 0.0
2016-Sep-26 20:32N 35°37' E 139°48'0 0.0
2016-Sep-26 19:32N 35°37' E 139°48'0 0.0
2016-Sep-26 15:32N 35°37' E 139°48'0 0.0
2016-Sep-26 13:32N 35°37' E 139°48'0 0.0
2016-Sep-26 11:32N 35°37' E 139°48'0 0.0
2016-Sep-26 08:32N 35°37' E 139°48'0 0.0
2016-Sep-26 02:29N 35°37' E 139°48'0 0.0
2016-Sep-26 01:32N 35°37' E 139°48'0 0.0
2016-Sep-26 00:29N 35°37' E 139°48'0 0.0
2016-Sep-25 21:32N 35°37' E 139°48'35 8.8
2016-Sep-25 17:34N 35°03' E 139°40'6819.8
2016-Sep-25 14:06N 34°26' E 138°30'17618.5
2016-Sep-25 04:33N 33°56' E 134°60'  
2016-Sep-22 12:33N 35°14' E 139°47'23 2.9
2016-Sep-22 04:32N 35°37' E 139°48'0 0.0
2016-Sep-22 03:32N 35°37' E 139°48'0 0.0
2016-Sep-22 00:32N 35°37' E 139°48'0 0.0
2016-Sep-21 23:32N 35°37' E 139°48'0 0.0
2016-Sep-21 22:32N 35°37' E 139°48'26 8.7
2016-Sep-21 19:33N 35°11' E 139°46'24617.6
2016-Sep-21 05:33N 33°59' E 135°00'3718.6
2016-Sep-21 03:33N 34°36' E 134°56'  
Track history (hours):
 
Tides and Currents Weather Stations Pressure Air Temp Water Temp Dewpoint Dewpoint Depression Visibility Wind Speed Wind Dir Waves Ship Positions

Sunflower Hakata

Last reported at 2016-Sep-27 14:33 UTC. Time now 2016-Sep-29 13:38 UTC.
Position N 35°00' E 139°33'.

Length 167 m; draft 6.5 m.

Type: Cargo ship. MMSI: 431501764.

Date/timePositionNaut miles runAvg speedWind from/ knotsBaromVisibWave heightAir tempDewpointWater temp
2016-Sep-27 14:33N 35°00' E 139°33'1817.9
2016-Sep-27 13:33N 35°14' E 139°46'23 7.5
2016-Sep-27 10:33N 35°37' E 139°48'0 0.0
2016-Sep-27 00:33N 35°37' E 139°48'0 0.0
2016-Sep-26 20:32N 35°37' E 139°48'0 0.0
2016-Sep-26 19:32N 35°37' E 139°48'0 0.0
2016-Sep-26 15:32N 35°37' E 139°48'0 0.0
2016-Sep-26 13:32N 35°37' E 139°48'0 0.0
2016-Sep-26 11:32N 35°37' E 139°48'0 0.0
2016-Sep-26 08:32N 35°37' E 139°48'0 0.0
2016-Sep-26 02:29N 35°37' E 139°48'0 0.0
2016-Sep-26 01:32N 35°37' E 139°48'0 0.0
2016-Sep-26 00:29N 35°37' E 139°48'0 0.0
2016-Sep-25 21:32N 35°37' E 139°48'35 8.8
2016-Sep-25 17:34N 35°03' E 139°40'6819.8
2016-Sep-25 14:06N 34°26' E 138°30'17618.5
2016-Sep-25 04:33N 33°56' E 134°60'  
2016-Sep-22 12:33N 35°14' E 139°47'23 2.9
2016-Sep-22 04:32N 35°37' E 139°48'0 0.0
2016-Sep-22 03:32N 35°37' E 139°48'0 0.0
2016-Sep-22 00:32N 35°37' E 139°48'0 0.0
2016-Sep-21 23:32N 35°37' E 139°48'0 0.0
2016-Sep-21 22:32N 35°37' E 139°48'26 8.7
2016-Sep-21 19:33N 35°11' E 139°46'24617.6
2016-Sep-21 05:33N 33°59' E 135°00'3718.6
2016-Sep-21 03:33N 34°36' E 134°56'  

Dump ship's entire track history